sensor_id;sensor_type;location;lat;lon;timestamp;P1;durP1;ratioP1;P2;durP2;ratioP2
67363;SDS011;54250;45.572;38.086;2023-02-28T00:00:31;8.75;;;4.18;;
67363;SDS011;54250;45.572;38.086;2023-02-28T00:02:58;7.50;;;4.15;;
67363;SDS011;54250;45.572;38.086;2023-02-28T00:05:25;8.82;;;4.10;;
67363;SDS011;54250;45.572;38.086;2023-02-28T00:07:52;10.00;;;4.40;;
67363;SDS011;54250;45.572;38.086;2023-02-28T00:10:19;7.80;;;4.22;;
67363;SDS011;54250;45.572;38.086;2023-02-28T00:12:48;6.45;;;3.90;;
67363;SDS011;54250;45.572;38.086;2023-02-28T00:15:15;15.90;;;4.80;;
67363;SDS011;54250;45.572;38.086;2023-02-28T00:17:41;7.55;;;3.10;;
67363;SDS011;54250;45.572;38.086;2023-02-28T00:20:08;4.32;;;2.72;;
67363;SDS011;54250;45.572;38.086;2023-02-28T00:22:43;8.60;;;3.92;;
67363;SDS011;54250;45.572;38.086;2023-02-28T00:25:12;6.18;;;3.58;;
67363;SDS011;54250;45.572;38.086;2023-02-28T00:27:40;8.38;;;3.80;;
67363;SDS011;54250;45.572;38.086;2023-02-28T00:30:08;5.78;;;2.95;;
67363;SDS011;54250;45.572;38.086;2023-02-28T00:32:36;6.13;;;3.92;;
67363;SDS011;54250;45.572;38.086;2023-02-28T00:35:02;8.25;;;4.30;;
67363;SDS011;54250;45.572;38.086;2023-02-28T00:37:29;8.60;;;3.42;;
67363;SDS011;54250;45.572;38.086;2023-02-28T00:39:55;8.27;;;3.33;;
67363;SDS011;54250;45.572;38.086;2023-02-28T00:42:21;5.18;;;2.15;;
67363;SDS011;54250;45.572;38.086;2023-02-28T00:44:47;12.27;;;3.90;;
67363;SDS011;54250;45.572;38.086;2023-02-28T00:47:13;6.90;;;3.38;;
67363;SDS011;54250;45.572;38.086;2023-02-28T00:49:39;5.82;;;2.55;;
67363;SDS011;54250;45.572;38.086;2023-02-28T00:52:08;7.78;;;3.60;;
67363;SDS011;54250;45.572;38.086;2023-02-28T00:54:34;5.50;;;2.80;;
67363;SDS011;54250;45.572;38.086;2023-02-28T00:57:01;5.97;;;3.65;;
67363;SDS011;54250;45.572;38.086;2023-02-28T00:59:27;8.95;;;3.10;;
67363;SDS011;54250;45.572;38.086;2023-02-28T01:01:53;3.58;;;2.75;;
67363;SDS011;54250;45.572;38.086;2023-02-28T01:04:20;3.42;;;2.30;;
67363;SDS011;54250;45.572;38.086;2023-02-28T01:06:47;7.40;;;2.55;;
67363;SDS011;54250;45.572;38.086;2023-02-28T01:09:13;5.15;;;2.50;;
67363;SDS011;54250;45.572;38.086;2023-02-28T01:11:41;6.68;;;2.70;;
67363;SDS011;54250;45.572;38.086;2023-02-28T01:14:12;4.80;;;1.67;;
67363;SDS011;54250;45.572;38.086;2023-02-28T01:16:39;7.38;;;2.90;;
67363;SDS011;54250;45.572;38.086;2023-02-28T01:19:05;7.05;;;3.45;;
67363;SDS011;54250;45.572;38.086;2023-02-28T01:21:31;5.65;;;3.03;;
67363;SDS011;54250;45.572;38.086;2023-02-28T01:23:57;8.85;;;4.15;;
67363;SDS011;54250;45.572;38.086;2023-02-28T01:26:23;13.85;;;3.80;;
67363;SDS011;54250;45.572;38.086;2023-02-28T01:28:50;7.70;;;4.20;;
67363;SDS011;54250;45.572;38.086;2023-02-28T01:31:17;9.50;;;3.85;;
67363;SDS011;54250;45.572;38.086;2023-02-28T01:33:45;10.70;;;4.10;;
67363;SDS011;54250;45.572;38.086;2023-02-28T01:36:12;7.43;;;3.35;;
67363;SDS011;54250;45.572;38.086;2023-02-28T01:38:41;7.97;;;2.40;;
67363;SDS011;54250;45.572;38.086;2023-02-28T01:41:08;8.65;;;4.28;;
67363;SDS011;54250;45.572;38.086;2023-02-28T01:46:11;5.68;;;3.28;;
67363;SDS011;54250;45.572;38.086;2023-02-28T01:48:40;8.88;;;4.20;;
67363;SDS011;54250;45.572;38.086;2023-02-28T01:51:29;7.80;;;3.95;;
67363;SDS011;54250;45.572;38.086;2023-02-28T01:54:09;8.70;;;3.92;;
67363;SDS011;54250;45.572;38.086;2023-02-28T01:56:42;9.32;;;3.60;;
67363;SDS011;54250;45.572;38.086;2023-02-28T01:59:12;8.50;;;4.15;;
67363;SDS011;54250;45.572;38.086;2023-02-28T02:01:45;12.25;;;3.63;;
67363;SDS011;54250;45.572;38.086;2023-02-28T02:04:11;6.38;;;3.95;;
67363;SDS011;54250;45.572;38.086;2023-02-28T02:06:39;16.85;;;4.45;;
67363;SDS011;54250;45.572;38.086;2023-02-28T02:09:09;10.35;;;3.85;;
67363;SDS011;54250;45.572;38.086;2023-02-28T02:11:36;7.20;;;3.55;;
67363;SDS011;54250;45.572;38.086;2023-02-28T02:17:15;7.53;;;4.22;;
67363;SDS011;54250;45.572;38.086;2023-02-28T02:26:01;6.50;;;3.70;;
67363;SDS011;54250;45.572;38.086;2023-02-28T02:31:19;6.45;;;3.88;;
67363;SDS011;54250;45.572;38.086;2023-02-28T02:36:27;10.00;;;3.50;;
67363;SDS011;54250;45.572;38.086;2023-02-28T02:39:05;7.72;;;3.95;;
67363;SDS011;54250;45.572;38.086;2023-02-28T02:41:39;8.20;;;3.85;;
67363;SDS011;54250;45.572;38.086;2023-02-28T02:46:48;7.22;;;3.78;;
67363;SDS011;54250;45.572;38.086;2023-02-28T02:49:20;6.97;;;3.75;;
67363;SDS011;54250;45.572;38.086;2023-02-28T02:51:54;10.55;;;4.00;;
67363;SDS011;54250;45.572;38.086;2023-02-28T02:54:28;7.53;;;3.80;;
67363;SDS011;54250;45.572;38.086;2023-02-28T02:57:08;11.45;;;4.15;;
67363;SDS011;54250;45.572;38.086;2023-02-28T02:59:40;5.40;;;3.40;;
67363;SDS011;54250;45.572;38.086;2023-02-28T03:02:08;7.55;;;4.22;;
67363;SDS011;54250;45.572;38.086;2023-02-28T03:04:42;7.15;;;3.90;;
67363;SDS011;54250;45.572;38.086;2023-02-28T03:07:11;8.40;;;3.58;;
67363;SDS011;54250;45.572;38.086;2023-02-28T03:09:38;8.90;;;4.68;;
67363;SDS011;54250;45.572;38.086;2023-02-28T03:12:07;13.52;;;4.55;;
67363;SDS011;54250;45.572;38.086;2023-02-28T03:20:07;12.05;;;3.58;;
67363;SDS011;54250;45.572;38.086;2023-02-28T03:33:58;20.48;;;4.43;;
67363;SDS011;54250;45.572;38.086;2023-02-28T03:36:30;12.48;;;5.32;;
67363;SDS011;54250;45.572;38.086;2023-02-28T03:39:11;12.32;;;5.70;;
67363;SDS011;54250;45.572;38.086;2023-02-28T03:42:06;13.90;;;5.25;;
67363;SDS011;54250;45.572;38.086;2023-02-28T03:44:41;12.70;;;4.97;;
67363;SDS011;54250;45.572;38.086;2023-02-28T03:47:12;10.73;;;4.97;;
67363;SDS011;54250;45.572;38.086;2023-02-28T03:49:43;14.00;;;5.20;;
67363;SDS011;54250;45.572;38.086;2023-02-28T03:52:17;8.93;;;4.72;;
67363;SDS011;54250;45.572;38.086;2023-02-28T03:54:48;14.75;;;5.00;;
67363;SDS011;54250;45.572;38.086;2023-02-28T03:57:27;13.27;;;4.95;;
67363;SDS011;54250;45.572;38.086;2023-02-28T04:00:07;17.10;;;4.35;;
67363;SDS011;54250;45.572;38.086;2023-02-28T04:02:42;8.43;;;4.30;;
67363;SDS011;54250;45.572;38.086;2023-02-28T04:05:08;10.60;;;3.70;;
67363;SDS011;54250;45.572;38.086;2023-02-28T04:07:35;8.73;;;3.60;;
67363;SDS011;54250;45.572;38.086;2023-02-28T04:10:00;6.07;;;3.63;;
67363;SDS011;54250;45.572;38.086;2023-02-28T04:12:27;8.40;;;3.78;;
67363;SDS011;54250;45.572;38.086;2023-02-28T04:14:52;8.73;;;3.92;;
67363;SDS011;54250;45.572;38.086;2023-02-28T04:17:18;19.50;;;2.95;;
67363;SDS011;54250;45.572;38.086;2023-02-28T04:19:44;8.45;;;2.47;;
67363;SDS011;54250;45.572;38.086;2023-02-28T04:22:10;9.70;;;3.13;;
67363;SDS011;54250;45.572;38.086;2023-02-28T04:24:36;5.28;;;3.22;;
67363;SDS011;54250;45.572;38.086;2023-02-28T04:27:06;9.98;;;3.65;;
67363;SDS011;54250;45.572;38.086;2023-02-28T04:29:34;15.27;;;4.13;;
67363;SDS011;54250;45.572;38.086;2023-02-28T04:32:00;5.47;;;3.22;;
67363;SDS011;54250;45.572;38.086;2023-02-28T04:34:27;8.73;;;3.67;;
67363;SDS011;54250;45.572;38.086;2023-02-28T04:36:54;12.63;;;2.80;;
67363;SDS011;54250;45.572;38.086;2023-02-28T04:39:22;6.05;;;3.25;;
67363;SDS011;54250;45.572;38.086;2023-02-28T04:41:49;11.95;;;2.95;;
67363;SDS011;54250;45.572;38.086;2023-02-28T04:44:15;6.50;;;2.50;;
67363;SDS011;54250;45.572;38.086;2023-02-28T04:46:42;8.55;;;2.22;;
67363;SDS011;54250;45.572;38.086;2023-02-28T04:49:09;1.38;;;0.88;;
67363;SDS011;54250;45.572;38.086;2023-02-28T04:51:37;7.47;;;2.65;;
67363;SDS011;54250;45.572;38.086;2023-02-28T04:54:03;3.63;;;2.13;;
67363;SDS011;54250;45.572;38.086;2023-02-28T04:56:29;3.22;;;1.80;;
67363;SDS011;54250;45.572;38.086;2023-02-28T04:58:55;6.03;;;3.53;;
67363;SDS011;54250;45.572;38.086;2023-02-28T05:01:26;8.52;;;3.13;;
67363;SDS011;54250;45.572;38.086;2023-02-28T05:03:58;10.23;;;3.58;;
67363;SDS011;54250;45.572;38.086;2023-02-28T05:06:26;7.20;;;3.00;;
67363;SDS011;54250;45.572;38.086;2023-02-28T05:08:53;4.78;;;1.92;;
67363;SDS011;54250;45.572;38.086;2023-02-28T05:11:20;7.22;;;3.35;;
67363;SDS011;54250;45.572;38.086;2023-02-28T05:14:03;7.80;;;3.40;;
67363;SDS011;54250;45.572;38.086;2023-02-28T05:16:31;10.50;;;3.22;;
67363;SDS011;54250;45.572;38.086;2023-02-28T05:18:57;8.68;;;3.92;;
67363;SDS011;54250;45.572;38.086;2023-02-28T05:21:26;10.88;;;4.10;;
67363;SDS011;54250;45.572;38.086;2023-02-28T05:24:02;8.57;;;3.25;;
67363;SDS011;54250;45.572;38.086;2023-02-28T05:26:30;5.22;;;2.58;;
67363;SDS011;54250;45.572;38.086;2023-02-28T05:28:56;6.90;;;4.05;;
67363;SDS011;54250;45.572;38.086;2023-02-28T05:31:23;18.50;;;5.25;;
67363;SDS011;54250;45.572;38.086;2023-02-28T05:33:49;11.63;;;3.58;;
67363;SDS011;54250;45.572;38.086;2023-02-28T05:36:15;14.20;;;5.15;;
67363;SDS011;54250;45.572;38.086;2023-02-28T05:38:41;13.20;;;4.93;;
67363;SDS011;54250;45.572;38.086;2023-02-28T05:41:07;9.27;;;4.88;;
67363;SDS011;54250;45.572;38.086;2023-02-28T05:43:34;5.00;;;2.97;;
67363;SDS011;54250;45.572;38.086;2023-02-28T05:46:06;5.40;;;2.85;;
67363;SDS011;54250;45.572;38.086;2023-02-28T05:48:33;11.23;;;2.92;;
67363;SDS011;54250;45.572;38.086;2023-02-28T05:51:01;8.07;;;4.20;;
67363;SDS011;54250;45.572;38.086;2023-02-28T05:53:29;12.13;;;3.90;;
67363;SDS011;54250;45.572;38.086;2023-02-28T05:55:55;6.43;;;3.28;;
67363;SDS011;54250;45.572;38.086;2023-02-28T05:58:21;4.88;;;2.42;;
67363;SDS011;54250;45.572;38.086;2023-02-28T06:00:48;5.63;;;2.63;;
67363;SDS011;54250;45.572;38.086;2023-02-28T06:03:14;5.22;;;2.80;;
67363;SDS011;54250;45.572;38.086;2023-02-28T06:05:40;4.00;;;2.28;;
67363;SDS011;54250;45.572;38.086;2023-02-28T06:08:06;5.07;;;2.10;;
67363;SDS011;54250;45.572;38.086;2023-02-28T06:10:33;4.22;;;2.78;;
67363;SDS011;54250;45.572;38.086;2023-02-28T06:13:00;5.65;;;2.92;;
67363;SDS011;54250;45.572;38.086;2023-02-28T06:15:27;2.30;;;1.23;;
67363;SDS011;54250;45.572;38.086;2023-02-28T06:17:54;4.25;;;2.00;;
67363;SDS011;54250;45.572;38.086;2023-02-28T06:20:24;3.50;;;2.22;;
67363;SDS011;54250;45.572;38.086;2023-02-28T06:22:55;3.63;;;2.75;;
67363;SDS011;54250;45.572;38.086;2023-02-28T06:25:24;2.88;;;1.92;;
67363;SDS011;54250;45.572;38.086;2023-02-28T06:27:50;5.18;;;2.85;;
67363;SDS011;54250;45.572;38.086;2023-02-28T06:30:17;4.97;;;2.58;;
67363;SDS011;54250;45.572;38.086;2023-02-28T06:32:43;4.35;;;2.50;;
67363;SDS011;54250;45.572;38.086;2023-02-28T06:35:09;4.53;;;2.78;;
67363;SDS011;54250;45.572;38.086;2023-02-28T06:37:35;6.68;;;2.95;;
67363;SDS011;54250;45.572;38.086;2023-02-28T06:40:01;3.85;;;1.85;;
67363;SDS011;54250;45.572;38.086;2023-02-28T06:42:28;6.15;;;3.35;;
67363;SDS011;54250;45.572;38.086;2023-02-28T06:44:56;2.58;;;2.08;;
67363;SDS011;54250;45.572;38.086;2023-02-28T06:47:22;10.15;;;2.30;;
67363;SDS011;54250;45.572;38.086;2023-02-28T06:49:48;4.60;;;2.70;;
67363;SDS011;54250;45.572;38.086;2023-02-28T06:52:15;5.97;;;2.70;;
67363;SDS011;54250;45.572;38.086;2023-02-28T06:54:41;4.78;;;2.60;;
67363;SDS011;54250;45.572;38.086;2023-02-28T06:57:07;6.10;;;2.42;;
67363;SDS011;54250;45.572;38.086;2023-02-28T06:59:33;3.70;;;2.53;;
67363;SDS011;54250;45.572;38.086;2023-02-28T07:02:00;13.10;;;3.47;;
67363;SDS011;54250;45.572;38.086;2023-02-28T07:04:27;3.95;;;2.70;;
67363;SDS011;54250;45.572;38.086;2023-02-28T07:06:54;5.47;;;2.70;;
67363;SDS011;54250;45.572;38.086;2023-02-28T07:09:22;6.32;;;3.40;;
67363;SDS011;54250;45.572;38.086;2023-02-28T07:11:48;4.82;;;3.28;;
67363;SDS011;54250;45.572;38.086;2023-02-28T07:14:14;7.47;;;3.35;;
67363;SDS011;54250;45.572;38.086;2023-02-28T07:16:41;7.95;;;4.70;;
67363;SDS011;54250;45.572;38.086;2023-02-28T07:19:07;4.57;;;3.20;;
67363;SDS011;54250;45.572;38.086;2023-02-28T07:21:33;8.48;;;3.50;;
67363;SDS011;54250;45.572;38.086;2023-02-28T07:23:59;5.70;;;3.00;;
67363;SDS011;54250;45.572;38.086;2023-02-28T07:26:25;4.60;;;2.88;;
67363;SDS011;54250;45.572;38.086;2023-02-28T07:28:51;8.98;;;4.07;;
67363;SDS011;54250;45.572;38.086;2023-02-28T07:31:17;9.98;;;3.95;;
67363;SDS011;54250;45.572;38.086;2023-02-28T07:33:43;10.93;;;4.38;;
67363;SDS011;54250;45.572;38.086;2023-02-28T07:36:11;6.40;;;3.30;;
67363;SDS011;54250;45.572;38.086;2023-02-28T07:38:43;8.50;;;3.72;;
67363;SDS011;54250;45.572;38.086;2023-02-28T07:41:12;13.52;;;4.18;;
67363;SDS011;54250;45.572;38.086;2023-02-28T07:43:38;9.52;;;5.32;;
67363;SDS011;54250;45.572;38.086;2023-02-28T07:46:08;9.25;;;5.03;;
67363;SDS011;54250;45.572;38.086;2023-02-28T07:48:36;6.40;;;3.80;;
67363;SDS011;54250;45.572;38.086;2023-02-28T07:51:02;9.43;;;3.33;;
67363;SDS011;54250;45.572;38.086;2023-02-28T07:53:28;15.02;;;4.60;;
67363;SDS011;54250;45.572;38.086;2023-02-28T07:55:56;12.38;;;5.88;;
67363;SDS011;54250;45.572;38.086;2023-02-28T07:58:22;21.90;;;7.85;;
67363;SDS011;54250;45.572;38.086;2023-02-28T08:00:50;13.73;;;5.95;;
67363;SDS011;54250;45.572;38.086;2023-02-28T08:03:17;13.30;;;6.22;;
67363;SDS011;54250;45.572;38.086;2023-02-28T08:05:44;14.20;;;7.43;;
67363;SDS011;54250;45.572;38.086;2023-02-28T08:08:10;20.90;;;7.32;;
67363;SDS011;54250;45.572;38.086;2023-02-28T08:10:36;27.27;;;8.35;;
67363;SDS011;54250;45.572;38.086;2023-02-28T08:13:03;10.68;;;4.43;;
67363;SDS011;54250;45.572;38.086;2023-02-28T08:15:29;10.68;;;5.03;;
67363;SDS011;54250;45.572;38.086;2023-02-28T08:17:55;14.00;;;6.25;;
67363;SDS011;54250;45.572;38.086;2023-02-28T08:20:22;17.55;;;5.45;;
67363;SDS011;54250;45.572;38.086;2023-02-28T08:22:49;9.68;;;4.40;;
67363;SDS011;54250;45.572;38.086;2023-02-28T08:25:15;18.35;;;6.60;;
67363;SDS011;54250;45.572;38.086;2023-02-28T08:27:41;21.05;;;6.93;;
67363;SDS011;54250;45.572;38.086;2023-02-28T08:30:07;15.95;;;5.35;;
67363;SDS011;54250;45.572;38.086;2023-02-28T08:32:36;27.80;;;8.43;;
67363;SDS011;54250;45.572;38.086;2023-02-28T08:35:02;13.15;;;6.60;;
67363;SDS011;54250;45.572;38.086;2023-02-28T08:37:28;10.65;;;4.28;;
67363;SDS011;54250;45.572;38.086;2023-02-28T08:39:54;23.05;;;7.18;;
67363;SDS011;54250;45.572;38.086;2023-02-28T08:42:21;13.85;;;4.35;;
67363;SDS011;54250;45.572;38.086;2023-02-28T08:44:48;18.20;;;7.03;;
67363;SDS011;54250;45.572;38.086;2023-02-28T08:47:14;22.15;;;6.68;;
67363;SDS011;54250;45.572;38.086;2023-02-28T08:49:40;8.95;;;4.93;;
67363;SDS011;54250;45.572;38.086;2023-02-28T08:52:07;11.27;;;5.18;;
67363;SDS011;54250;45.572;38.086;2023-02-28T08:54:33;18.33;;;6.18;;
67363;SDS011;54250;45.572;38.086;2023-02-28T08:56:59;17.55;;;5.35;;
67363;SDS011;54250;45.572;38.086;2023-02-28T08:59:25;19.92;;;5.75;;
67363;SDS011;54250;45.572;38.086;2023-02-28T09:01:51;22.58;;;7.75;;
67363;SDS011;54250;45.572;38.086;2023-02-28T09:04:17;19.30;;;7.35;;
67363;SDS011;54250;45.572;38.086;2023-02-28T09:06:43;13.27;;;5.38;;
67363;SDS011;54250;45.572;38.086;2023-02-28T09:09:10;8.68;;;4.53;;
67363;SDS011;54250;45.572;38.086;2023-02-28T09:11:36;21.38;;;6.20;;
67363;SDS011;54250;45.572;38.086;2023-02-28T09:14:02;22.63;;;6.35;;
67363;SDS011;54250;45.572;38.086;2023-02-28T09:16:29;13.35;;;5.53;;
67363;SDS011;54250;45.572;38.086;2023-02-28T09:18:56;15.90;;;6.18;;
67363;SDS011;54250;45.572;38.086;2023-02-28T09:21:22;16.98;;;6.82;;
67363;SDS011;54250;45.572;38.086;2023-02-28T09:23:49;20.90;;;7.70;;
67363;SDS011;54250;45.572;38.086;2023-02-28T09:28:53;28.00;;;6.63;;
67363;SDS011;54250;45.572;38.086;2023-02-28T09:31:20;21.35;;;6.90;;
67363;SDS011;54250;45.572;38.086;2023-02-28T09:33:49;16.90;;;7.05;;
67363;SDS011;54250;45.572;38.086;2023-02-28T09:36:17;21.30;;;7.70;;
67363;SDS011;54250;45.572;38.086;2023-02-28T09:38:43;12.43;;;6.40;;
67363;SDS011;54250;45.572;38.086;2023-02-28T09:41:17;22.13;;;6.30;;
67363;SDS011;54250;45.572;38.086;2023-02-28T09:43:56;13.65;;;6.20;;
67363;SDS011;54250;45.572;38.086;2023-02-28T09:49:11;11.32;;;4.43;;
67363;SDS011;54250;45.572;38.086;2023-02-28T09:54:17;17.25;;;7.63;;
67363;SDS011;54250;45.572;38.086;2023-02-28T09:56:50;15.70;;;6.03;;
67363;SDS011;54250;45.572;38.086;2023-02-28T09:59:22;18.30;;;7.05;;
67363;SDS011;54250;45.572;38.086;2023-02-28T10:01:59;10.68;;;5.18;;
67363;SDS011;54250;45.572;38.086;2023-02-28T10:04:48;6.75;;;3.78;;
67363;SDS011;54250;45.572;38.086;2023-02-28T10:10:46;12.27;;;5.22;;
67363;SDS011;54250;45.572;38.086;2023-02-28T10:13:23;24.70;;;7.47;;
67363;SDS011;54250;45.572;38.086;2023-02-28T10:15:55;14.00;;;6.45;;
67363;SDS011;54250;45.572;38.086;2023-02-28T10:18:26;15.88;;;7.75;;
67363;SDS011;54250;45.572;38.086;2023-02-28T10:20:56;16.92;;;7.43;;
67363;SDS011;54250;45.572;38.086;2023-02-28T10:23:31;10.23;;;5.75;;
67363;SDS011;54250;45.572;38.086;2023-02-28T10:26:11;12.27;;;6.88;;
67363;SDS011;54250;45.572;38.086;2023-02-28T10:28:38;31.63;;;11.80;;
67363;SDS011;54250;45.572;38.086;2023-02-28T10:31:05;30.60;;;12.90;;
67363;SDS011;54250;45.572;38.086;2023-02-28T10:33:42;44.33;;;16.08;;
67363;SDS011;54250;45.572;38.086;2023-02-28T10:36:10;32.83;;;10.35;;
67363;SDS011;54250;45.572;38.086;2023-02-28T10:38:44;26.48;;;11.77;;
67363;SDS011;54250;45.572;38.086;2023-02-28T10:41:15;22.20;;;9.40;;
67363;SDS011;54250;45.572;38.086;2023-02-28T10:43:52;36.90;;;14.05;;
67363;SDS011;54250;45.572;38.086;2023-02-28T10:46:40;47.90;;;18.48;;
67363;SDS011;54250;45.572;38.086;2023-02-28T10:49:28;65.05;;;21.05;;
67363;SDS011;54250;45.572;38.086;2023-02-28T10:51:55;24.90;;;10.38;;
67363;SDS011;54250;45.572;38.086;2023-02-28T10:54:29;50.42;;;18.48;;
67363;SDS011;54250;45.572;38.086;2023-02-28T10:59:42;19.17;;;7.90;;
67363;SDS011;54250;45.572;38.086;2023-02-28T11:04:56;29.70;;;12.05;;
67363;SDS011;54250;45.572;38.086;2023-02-28T11:07:23;20.00;;;8.70;;
67363;SDS011;54250;45.572;38.086;2023-02-28T11:09:51;23.73;;;10.80;;
67363;SDS011;54250;45.572;38.086;2023-02-28T11:14:53;31.50;;;11.48;;
67363;SDS011;54250;45.572;38.086;2023-02-28T11:17:31;15.73;;;7.05;;
67363;SDS011;54250;45.572;38.086;2023-02-28T11:20:04;26.35;;;10.60;;
67363;SDS011;54250;45.572;38.086;2023-02-28T11:22:35;61.25;;;20.13;;
67363;SDS011;54250;45.572;38.086;2023-02-28T11:27:52;39.00;;;14.25;;
67363;SDS011;54250;45.572;38.086;2023-02-28T11:30:28;74.55;;;23.27;;
67363;SDS011;54250;45.572;38.086;2023-02-28T11:35:49;23.98;;;10.45;;
67363;SDS011;54250;45.572;38.086;2023-02-28T11:38:17;22.23;;;8.27;;
67363;SDS011;54250;45.572;38.086;2023-02-28T11:40:46;27.75;;;7.63;;
67363;SDS011;54250;45.572;38.086;2023-02-28T11:43:40;23.70;;;10.13;;
67363;SDS011;54250;45.572;38.086;2023-02-28T11:51:35;19.80;;;7.43;;
67363;SDS011;54250;45.572;38.086;2023-02-28T11:56:52;22.20;;;9.15;;
67363;SDS011;54250;45.572;38.086;2023-02-28T12:02:40;40.70;;;12.43;;
67363;SDS011;54250;45.572;38.086;2023-02-28T12:11:00;24.23;;;7.95;;
67363;SDS011;54250;45.572;38.086;2023-02-28T12:13:33;10.40;;;3.83;;
67363;SDS011;54250;45.572;38.086;2023-02-28T12:19:00;10.45;;;4.22;;
67363;SDS011;54250;45.572;38.086;2023-02-28T12:21:59;21.85;;;9.60;;
67363;SDS011;54250;45.572;38.086;2023-02-28T12:27:46;26.92;;;9.80;;
67363;SDS011;54250;45.572;38.086;2023-02-28T12:30:16;22.63;;;7.43;;
67363;SDS011;54250;45.572;38.086;2023-02-28T12:33:09;30.52;;;9.18;;
67363;SDS011;54250;45.572;38.086;2023-02-28T12:35:56;14.23;;;6.15;;
67363;SDS011;54250;45.572;38.086;2023-02-28T12:41:18;16.25;;;7.78;;
67363;SDS011;54250;45.572;38.086;2023-02-28T12:43:50;12.55;;;5.82;;
67363;SDS011;54250;45.572;38.086;2023-02-28T12:46:30;9.68;;;4.05;;
67363;SDS011;54250;45.572;38.086;2023-02-28T12:49:02;10.68;;;5.13;;
67363;SDS011;54250;45.572;38.086;2023-02-28T12:51:36;15.15;;;3.45;;
67363;SDS011;54250;45.572;38.086;2023-02-28T12:57:08;12.18;;;3.65;;
67363;SDS011;54250;45.572;38.086;2023-02-28T13:10:23;5.28;;;3.05;;
67363;SDS011;54250;45.572;38.086;2023-02-28T13:12:51;5.65;;;3.38;;
67363;SDS011;54250;45.572;38.086;2023-02-28T13:15:21;8.60;;;3.15;;
67363;SDS011;54250;45.572;38.086;2023-02-28T13:17:51;10.27;;;4.07;;
67363;SDS011;54250;45.572;38.086;2023-02-28T13:22:49;4.97;;;2.10;;
67363;SDS011;54250;45.572;38.086;2023-02-28T13:27:59;3.97;;;2.10;;
67363;SDS011;54250;45.572;38.086;2023-02-28T13:33:36;4.10;;;2.20;;
67363;SDS011;54250;45.572;38.086;2023-02-28T13:36:25;2.95;;;2.22;;
67363;SDS011;54250;45.572;38.086;2023-02-28T13:38:59;2.47;;;1.77;;
67363;SDS011;54250;45.572;38.086;2023-02-28T13:44:05;7.55;;;2.65;;
67363;SDS011;54250;45.572;38.086;2023-02-28T13:54:45;8.40;;;2.45;;
67363;SDS011;54250;45.572;38.086;2023-02-28T13:57:24;4.80;;;2.35;;
67363;SDS011;54250;45.572;38.086;2023-02-28T14:05:40;4.53;;;2.33;;
67363;SDS011;54250;45.572;38.086;2023-02-28T14:10:44;11.82;;;4.28;;
67363;SDS011;54250;45.572;38.086;2023-02-28T14:13:13;3.95;;;2.13;;
67363;SDS011;54250;45.572;38.086;2023-02-28T14:16:02;5.80;;;2.03;;
67363;SDS011;54250;45.572;38.086;2023-02-28T14:18:33;8.20;;;3.30;;
67363;SDS011;54250;45.572;38.086;2023-02-28T14:21:21;9.55;;;4.35;;
67363;SDS011;54250;45.572;38.086;2023-02-28T14:27:08;11.02;;;5.20;;
67363;SDS011;54250;45.572;38.086;2023-02-28T14:37:34;9.85;;;4.93;;
67363;SDS011;54250;45.572;38.086;2023-02-28T14:40:04;11.27;;;4.60;;
67363;SDS011;54250;45.572;38.086;2023-02-28T14:42:46;11.68;;;5.55;;
67363;SDS011;54250;45.572;38.086;2023-02-28T14:45:17;9.27;;;4.65;;
67363;SDS011;54250;45.572;38.086;2023-02-28T14:47:47;10.80;;;3.28;;
67363;SDS011;54250;45.572;38.086;2023-02-28T14:50:21;4.68;;;3.38;;
67363;SDS011;54250;45.572;38.086;2023-02-28T14:52:53;6.80;;;3.40;;
67363;SDS011;54250;45.572;38.086;2023-02-28T14:55:23;9.80;;;3.83;;
67363;SDS011;54250;45.572;38.086;2023-02-28T14:58:05;12.38;;;3.67;;
67363;SDS011;54250;45.572;38.086;2023-02-28T15:00:33;7.88;;;3.00;;
67363;SDS011;54250;45.572;38.086;2023-02-28T15:06:16;8.15;;;3.15;;
67363;SDS011;54250;45.572;38.086;2023-02-28T15:08:43;13.20;;;4.45;;
67363;SDS011;54250;45.572;38.086;2023-02-28T15:11:14;3.20;;;2.05;;
67363;SDS011;54250;45.572;38.086;2023-02-28T15:13:48;8.85;;;3.65;;
67363;SDS011;54250;45.572;38.086;2023-02-28T15:16:17;5.05;;;2.67;;
67363;SDS011;54250;45.572;38.086;2023-02-28T15:18:54;9.90;;;5.20;;
67363;SDS011;54250;45.572;38.086;2023-02-28T15:21:24;11.93;;;4.50;;
67363;SDS011;54250;45.572;38.086;2023-02-28T15:23:57;8.82;;;3.70;;
67363;SDS011;54250;45.572;38.086;2023-02-28T15:26:26;6.13;;;2.72;;
67363;SDS011;54250;45.572;38.086;2023-02-28T15:29:15;11.07;;;4.32;;
67363;SDS011;54250;45.572;38.086;2023-02-28T15:31:48;10.65;;;4.22;;
67363;SDS011;54250;45.572;38.086;2023-02-28T15:40:10;7.80;;;4.30;;
67363;SDS011;54250;45.572;38.086;2023-02-28T15:43:05;4.60;;;2.92;;
67363;SDS011;54250;45.572;38.086;2023-02-28T15:45:38;13.13;;;4.22;;
67363;SDS011;54250;45.572;38.086;2023-02-28T15:48:13;5.55;;;2.85;;
67363;SDS011;54250;45.572;38.086;2023-02-28T15:53:48;8.25;;;4.32;;
67363;SDS011;54250;45.572;38.086;2023-02-28T15:56:27;4.65;;;2.85;;
67363;SDS011;54250;45.572;38.086;2023-02-28T15:58:55;8.63;;;3.17;;
67363;SDS011;54250;45.572;38.086;2023-02-28T16:03:50;8.30;;;3.95;;
67363;SDS011;54250;45.572;38.086;2023-02-28T16:06:21;5.18;;;3.28;;
67363;SDS011;54250;45.572;38.086;2023-02-28T16:08:57;4.75;;;3.05;;
67363;SDS011;54250;45.572;38.086;2023-02-28T16:11:23;6.22;;;3.00;;
67363;SDS011;54250;45.572;38.086;2023-02-28T16:13:49;5.47;;;3.17;;
67363;SDS011;54250;45.572;38.086;2023-02-28T16:16:20;2.78;;;1.65;;
67363;SDS011;54250;45.572;38.086;2023-02-28T16:18:49;5.38;;;2.90;;
67363;SDS011;54250;45.572;38.086;2023-02-28T16:21:16;7.63;;;3.70;;
67363;SDS011;54250;45.572;38.086;2023-02-28T16:23:42;4.97;;;2.88;;
67363;SDS011;54250;45.572;38.086;2023-02-28T16:26:08;8.52;;;3.05;;
67363;SDS011;54250;45.572;38.086;2023-02-28T16:28:50;3.58;;;1.92;;
67363;SDS011;54250;45.572;38.086;2023-02-28T16:31:17;2.75;;;1.75;;
67363;SDS011;54250;45.572;38.086;2023-02-28T16:33:44;3.10;;;1.67;;
67363;SDS011;54250;45.572;38.086;2023-02-28T16:36:18;8.50;;;3.05;;
67363;SDS011;54250;45.572;38.086;2023-02-28T16:38:47;5.75;;;2.60;;
67363;SDS011;54250;45.572;38.086;2023-02-28T16:41:19;4.07;;;2.53;;
67363;SDS011;54250;45.572;38.086;2023-02-28T16:43:49;5.38;;;2.72;;
67363;SDS011;54250;45.572;38.086;2023-02-28T16:46:17;5.00;;;3.20;;
67363;SDS011;54250;45.572;38.086;2023-02-28T16:48:46;4.10;;;2.33;;
67363;SDS011;54250;45.572;38.086;2023-02-28T16:51:16;4.72;;;3.15;;
67363;SDS011;54250;45.572;38.086;2023-02-28T16:53:44;15.50;;;3.78;;
67363;SDS011;54250;45.572;38.086;2023-02-28T16:56:22;5.30;;;1.60;;
67363;SDS011;54250;45.572;38.086;2023-02-28T16:58:50;4.47;;;2.97;;
67363;SDS011;54250;45.572;38.086;2023-02-28T17:01:19;7.43;;;3.17;;
67363;SDS011;54250;45.572;38.086;2023-02-28T17:03:48;10.48;;;3.40;;
67363;SDS011;54250;45.572;38.086;2023-02-28T17:06:22;7.88;;;3.25;;
67363;SDS011;54250;45.572;38.086;2023-02-28T17:08:50;7.43;;;3.90;;
67363;SDS011;54250;45.572;38.086;2023-02-28T17:11:17;8.20;;;4.30;;
67363;SDS011;54250;45.572;38.086;2023-02-28T17:13:44;6.47;;;3.40;;
67363;SDS011;54250;45.572;38.086;2023-02-28T17:16:44;5.93;;;3.40;;
67363;SDS011;54250;45.572;38.086;2023-02-28T17:21:33;4.97;;;2.35;;